createdAt,value
2019-05-11T00:01:56.075Z,58.95
2019-05-11T00:04:24.684Z,55.08
2019-05-11T00:06:53.262Z,54.20
2019-05-11T00:09:21.838Z,58.38
2019-05-11T00:11:50.715Z,58.50
2019-05-11T00:14:19.286Z,55.35
2019-05-11T00:16:48.032Z,60.35
2019-05-11T00:19:16.605Z,54.20
2019-05-11T00:21:45.356Z,54.40
2019-05-11T00:24:13.928Z,56.53
2019-05-11T00:26:42.490Z,52.93
2019-05-11T00:29:11.069Z,56.02
2019-05-11T00:31:39.674Z,52.30
2019-05-11T00:34:08.228Z,53.45
2019-05-11T00:36:36.805Z,52.43
2019-05-11T00:39:07.582Z,49.27
2019-05-11T00:41:36.384Z,50.70
2019-05-11T00:44:05.031Z,52.17
2019-05-11T00:46:33.610Z,49.70
2019-05-11T00:49:02.187Z,52.10
2019-05-11T00:51:30.856Z,53.52
2019-05-11T00:53:59.439Z,50.35
2019-05-11T00:56:28.047Z,46.70
2019-05-11T00:58:56.556Z,47.53
2019-05-11T01:01:25.134Z,48.25
2019-05-11T01:03:53.913Z,49.67
2019-05-11T01:06:22.513Z,43.55
2019-05-11T01:08:51.173Z,50.10
2019-05-11T01:11:19.751Z,47.30
2019-05-11T01:13:48.316Z,48.83
2019-05-11T01:16:16.818Z,49.77
2019-05-11T01:18:45.391Z,50.48
2019-05-11T01:21:14.088Z,52.17
2019-05-11T01:23:42.706Z,48.23
2019-05-11T01:26:11.278Z,47.27
2019-05-11T01:28:39.848Z,52.83
2019-05-11T01:31:08.414Z,45.73
2019-05-11T01:33:36.994Z,50.50
2019-05-11T01:36:05.527Z,55.23
2019-05-11T01:38:34.091Z,52.95
2019-05-11T01:41:03.150Z,55.33
2019-05-11T01:43:31.719Z,56.28
2019-05-11T01:46:00.289Z,56.08
2019-05-11T01:48:28.865Z,57.00
2019-05-11T01:50:57.409Z,55.08
2019-05-11T01:53:25.966Z,57.78
2019-05-11T01:55:54.662Z,58.90
2019-05-11T01:58:23.240Z,57.62
2019-05-11T02:00:51.816Z,55.83
2019-05-11T02:03:20.397Z,59.23
2019-05-11T02:05:51.633Z,59.75
2019-05-11T02:08:19.274Z,58.42
2019-05-11T02:10:47.841Z,56.37
2019-05-11T02:13:16.411Z,62.60
2019-05-11T02:15:44.990Z,57.15
2019-05-11T02:18:13.569Z,57.33
2019-05-11T02:20:42.140Z,57.65
2019-05-11T02:23:10.717Z,61.80
2019-05-11T02:25:39.288Z,61.80
2019-05-11T02:28:07.861Z,59.25
2019-05-11T02:30:36.539Z,63.08
2019-05-11T02:33:05.155Z,65.50
2019-05-11T02:35:33.655Z,60.55
2019-05-11T02:38:02.446Z,60.23
2019-05-11T02:40:31.009Z,60.63
2019-05-11T02:42:59.631Z,61.75
2019-05-11T02:45:40.179Z,63.17
2019-05-11T02:48:08.950Z,60.92
2019-05-11T02:50:39.208Z,62.67
2019-05-11T02:53:08.773Z,64.22
2019-05-11T02:55:37.857Z,59.15
2019-05-11T02:58:07.321Z,59.85
2019-05-11T03:00:38.703Z,61.05
2019-05-11T03:03:07.376Z,59.42
2019-05-11T03:05:36.177Z,60.28
2019-05-11T03:08:04.993Z,64.92
2019-05-11T03:10:33.581Z,65.05
2019-05-11T03:13:02.151Z,64.50
2019-05-11T03:15:30.727Z,67.05
2019-05-11T03:17:59.359Z,63.73
2019-05-11T03:20:27.945Z,65.47
2019-05-11T03:22:56.650Z,67.40
2019-05-11T03:25:25.226Z,66.67
2019-05-11T03:27:53.836Z,69.10
2019-05-11T03:30:22.507Z,68.02
2019-05-11T03:32:51.141Z,65.50
2019-05-11T03:35:19.710Z,67.22
2019-05-11T03:37:48.287Z,64.47
2019-05-11T03:40:17.101Z,65.45
2019-05-11T03:42:45.677Z,62.50
2019-05-11T03:45:14.686Z,63.63
2019-05-11T03:47:43.346Z,62.88
2019-05-11T03:50:12.012Z,66.00
2019-05-11T03:52:40.576Z,65.03
2019-05-11T03:55:09.142Z,67.10
2019-05-11T03:57:37.718Z,64.72
2019-05-11T04:00:08.108Z,65.37
2019-05-11T04:02:36.754Z,63.65
2019-05-11T04:05:06.647Z,64.58
2019-05-11T04:07:35.274Z,62.30
2019-05-11T04:10:05.219Z,69.15
2019-05-11T04:12:35.499Z,66.02
2019-05-11T04:15:05.809Z,64.62
2019-05-11T04:17:34.386Z,69.85
2019-05-11T04:20:03.154Z,62.90
2019-05-11T04:22:31.853Z,65.85
2019-05-11T04:25:00.386Z,60.50
2019-05-11T04:27:28.978Z,63.60
2019-05-11T04:29:57.554Z,65.57
2019-05-11T04:32:26.086Z,64.82
2019-05-11T04:34:54.710Z,63.55
2019-05-11T04:37:23.309Z,64.10
2019-05-11T04:39:51.934Z,63.23
2019-05-11T04:42:20.518Z,63.45
2019-05-11T04:44:52.272Z,68.30
2019-05-11T04:47:19.335Z,62.90
2019-05-11T04:49:47.876Z,65.55
2019-05-11T04:52:16.451Z,63.35
2019-05-11T04:54:45.080Z,63.08
2019-05-11T04:57:13.724Z,64.22
2019-05-11T04:59:42.312Z,67.90
2019-05-11T05:02:10.877Z,67.30
2019-05-11T05:04:39.569Z,68.00
2019-05-11T05:07:10.594Z,61.10
2019-05-11T05:09:42.560Z,65.55
2019-05-11T05:12:14.132Z,64.55
2019-05-11T05:14:38.928Z,63.60
2019-05-11T05:17:07.532Z,67.08
2019-05-11T05:19:36.158Z,65.47
2019-05-11T05:22:04.768Z,65.32
2019-05-11T05:24:33.343Z,65.70
2019-05-11T05:27:01.880Z,64.82
2019-05-11T05:29:30.455Z,65.15
2019-05-11T05:31:59.033Z,64.40
2019-05-11T05:34:27.614Z,61.40
2019-05-11T05:36:56.190Z,59.95
2019-05-11T05:39:24.768Z,58.60
2019-05-11T05:41:57.050Z,60.48
2019-05-11T05:44:27.509Z,56.75
2019-05-11T05:46:54.182Z,56.80
2019-05-11T05:49:22.764Z,56.92
2019-05-11T05:51:51.384Z,57.80
2019-05-11T05:54:20.037Z,53.00
2019-05-11T05:56:48.698Z,53.35
2019-05-11T05:59:17.328Z,49.95
2019-05-11T06:01:45.936Z,48.70
2019-05-11T06:04:14.590Z,44.63
2019-05-11T06:06:43.499Z,43.78
2019-05-11T06:09:12.108Z,42.05
2019-05-11T06:11:40.725Z,47.70
2019-05-11T06:14:09.336Z,40.85
2019-05-11T06:16:38.019Z,36.75
2019-05-11T06:19:06.617Z,36.10
2019-05-11T06:21:35.195Z,34.25
2019-05-11T06:24:06.720Z,36.05
2019-05-11T06:26:34.184Z,30.65
2019-05-11T06:29:02.701Z,31.07
2019-05-11T06:31:32.943Z,33.25
2019-05-11T06:34:01.572Z,36.15
2019-05-11T06:36:30.176Z,29.77
2019-05-11T06:38:58.760Z,29.98
2019-05-11T06:41:27.439Z,34.63
2019-05-11T06:44:01.690Z,31.20
2019-05-11T06:46:26.362Z,26.60
2019-05-11T06:48:55.071Z,28.50
2019-05-11T06:51:23.585Z,28.45
2019-05-11T06:53:52.209Z,30.50
2019-05-11T06:56:20.833Z,34.38
2019-05-11T06:58:49.415Z,27.17
2019-05-11T07:01:17.991Z,27.70
2019-05-11T07:03:46.569Z,26.17
2019-05-11T07:06:15.281Z,25.50
2019-05-11T07:08:43.853Z,22.40
2019-05-11T07:11:12.475Z,22.22
2019-05-11T07:13:41.064Z,26.20
2019-05-11T07:16:09.635Z,25.02
2019-05-11T07:18:38.136Z,20.80
2019-05-11T07:21:06.740Z,26.87
2019-05-11T07:23:35.282Z,22.98
2019-05-11T07:26:03.856Z,21.12
2019-05-11T07:28:32.437Z,25.32
2019-05-11T07:31:01.150Z,23.10
2019-05-11T07:33:29.672Z,21.93
2019-05-11T07:35:58.468Z,23.12
2019-05-11T07:38:27.808Z,23.38
2019-05-11T07:40:58.255Z,22.77
2019-05-11T07:43:28.718Z,24.30
2019-05-11T07:45:58.454Z,23.77
2019-05-11T07:48:27.887Z,24.57
2019-05-11T07:50:58.473Z,24.15
2019-05-11T07:53:27.935Z,25.25
2019-05-11T07:55:57.794Z,25.48
2019-05-11T07:58:28.546Z,25.52
2019-05-11T08:00:58.185Z,23.05
2019-05-11T08:03:28.365Z,25.97
2019-05-11T08:05:58.233Z,26.25
2019-05-11T08:08:28.350Z,24.23
2019-05-11T08:10:58.639Z,25.75
2019-05-11T08:13:28.225Z,24.10
2019-05-11T08:15:57.871Z,24.32
2019-05-11T08:18:28.222Z,26.33
2019-05-11T08:20:58.275Z,25.02
2019-05-11T08:23:28.488Z,21.87
2019-05-11T08:25:58.078Z,25.60
2019-05-11T08:28:28.778Z,21.52
2019-05-11T08:30:57.876Z,24.07
2019-05-11T08:33:28.425Z,20.90
2019-05-11T08:35:58.235Z,25.68
2019-05-11T08:38:28.548Z,20.00
2019-05-11T08:40:59.023Z,21.52
2019-05-11T08:43:28.479Z,19.02
2019-05-11T08:45:57.961Z,21.90
2019-05-11T08:48:28.260Z,23.38
2019-05-11T08:50:58.187Z,22.02
2019-05-11T08:53:28.465Z,22.25
2019-05-11T08:55:58.818Z,20.43
2019-05-11T08:58:27.917Z,23.60
2019-05-11T09:00:58.243Z,23.80
2019-05-11T09:03:28.390Z,19.62
2019-05-11T09:05:58.021Z,20.52
2019-05-11T09:08:28.328Z,27.32
2019-05-11T09:10:58.258Z,25.50
2019-05-11T09:13:27.916Z,22.07
2019-05-11T09:15:58.826Z,23.02
2019-05-11T09:18:27.955Z,26.40
2019-05-11T09:20:57.743Z,25.50
2019-05-11T09:23:34.711Z,35.65
2019-05-11T09:25:58.352Z,21.05
2019-05-11T09:28:29.266Z,21.40
2019-05-11T09:30:57.930Z,24.32
2019-05-11T09:33:28.334Z,20.37
2019-05-11T09:35:58.300Z,19.15
2019-05-11T09:38:27.826Z,22.22
2019-05-11T09:40:58.568Z,20.17
2019-05-11T09:43:28.405Z,26.93
2019-05-11T09:45:58.228Z,17.35
2019-05-11T09:48:28.424Z,19.77
2019-05-11T09:50:58.761Z,21.12
2019-05-11T09:53:28.322Z,19.17
2019-05-11T09:55:58.688Z,23.38
2019-05-11T09:58:28.117Z,21.70
2019-05-11T10:00:58.598Z,21.45
2019-05-11T10:03:28.171Z,20.52
2019-05-11T10:05:57.946Z,19.77
2019-05-11T10:08:28.685Z,23.10
2019-05-11T10:10:58.065Z,22.10
2019-05-11T10:13:27.814Z,21.57
2019-05-11T10:16:04.662Z,20.12
2019-05-11T10:18:28.187Z,20.35
2019-05-11T10:20:58.665Z,21.07
2019-05-11T10:23:27.854Z,18.50
2019-05-11T10:25:58.648Z,17.98
2019-05-11T10:28:28.458Z,15.38
2019-05-11T10:30:57.882Z,17.50
2019-05-11T10:33:28.116Z,16.42
2019-05-11T10:35:58.770Z,16.82
2019-05-11T10:38:28.513Z,17.40
2019-05-11T10:40:58.146Z,17.80
2019-05-11T10:43:28.805Z,14.87
2019-05-11T10:45:58.750Z,12.63
2019-05-11T10:48:28.229Z,13.65
2019-05-11T10:50:57.625Z,13.50
2019-05-11T10:53:27.793Z,14.83
2019-05-11T10:55:58.146Z,13.93
2019-05-11T10:58:28.563Z,11.95
2019-05-11T11:00:58.259Z,12.37
2019-05-11T11:03:28.368Z,12.75
2019-05-11T11:05:58.036Z,10.45
2019-05-11T11:08:27.827Z,13.50
2019-05-11T11:10:58.624Z,13.30
2019-05-11T11:13:28.142Z,11.85
2019-05-11T11:15:58.232Z,14.65
2019-05-11T11:18:28.766Z,13.18
2019-05-11T11:20:58.140Z,11.75
2019-05-11T11:23:28.480Z,11.63
2019-05-11T11:25:58.528Z,13.95
2019-05-11T11:28:28.002Z,14.30
2019-05-11T11:30:58.481Z,12.65
2019-05-11T11:33:27.717Z,12.75
2019-05-11T11:35:57.997Z,13.30
2019-05-11T11:38:28.684Z,12.93
2019-05-11T11:40:58.707Z,13.43
2019-05-11T11:43:28.740Z,12.70
2019-05-11T11:45:58.053Z,12.23
2019-05-11T11:48:27.983Z,16.77
2019-05-11T11:50:58.536Z,14.87
2019-05-11T11:53:28.000Z,13.43
2019-05-11T11:55:58.631Z,15.48
2019-05-11T11:58:27.678Z,12.82
2019-05-11T12:00:58.550Z,14.50
2019-05-11T12:03:27.702Z,13.62
2019-05-11T12:05:58.183Z,13.25
2019-05-11T12:08:28.210Z,13.65
2019-05-11T12:10:58.902Z,15.53
2019-05-11T12:13:29.727Z,11.08
2019-05-11T12:15:58.544Z,11.88
2019-05-11T12:18:28.650Z,11.55
2019-05-11T12:20:58.584Z,15.72
2019-05-11T12:23:28.450Z,14.35
2019-05-11T12:25:58.040Z,11.20
2019-05-11T12:28:27.616Z,10.45
2019-05-11T12:30:58.440Z,14.93
2019-05-11T12:33:27.963Z,12.25
2019-05-11T12:35:58.608Z,11.05
2019-05-11T12:38:27.648Z,13.15
2019-05-11T12:40:57.880Z,11.70
2019-05-11T12:43:27.713Z,10.75
2019-05-11T12:45:58.596Z,14.38
2019-05-11T12:48:28.513Z,13.20
2019-05-11T12:50:58.759Z,17.35
2019-05-11T12:53:28.040Z,14.80
2019-05-11T12:55:58.742Z,11.45
2019-05-11T12:58:28.102Z,12.85
2019-05-11T13:00:58.491Z,13.28
2019-05-11T13:03:27.848Z,11.90
2019-05-11T13:05:58.547Z,11.55
2019-05-11T13:08:27.715Z,12.00
2019-05-11T13:10:58.444Z,13.53
2019-05-11T13:13:28.559Z,11.28
2019-05-11T13:15:58.537Z,11.83
2019-05-11T13:18:27.990Z,12.03
2019-05-11T13:20:58.809Z,12.45
2019-05-11T13:23:27.846Z,12.28
2019-05-11T13:25:58.564Z,12.37
2019-05-11T13:28:28.446Z,11.08
2019-05-11T13:30:58.024Z,14.15
2019-05-11T13:33:28.007Z,14.43
2019-05-11T13:35:57.925Z,9.28
2019-05-11T13:38:28.258Z,12.68
2019-05-11T13:40:59.028Z,11.65
2019-05-11T13:43:28.159Z,11.33
2019-05-11T13:45:58.435Z,14.28
2019-05-11T13:48:28.123Z,10.88
2019-05-11T13:50:58.234Z,13.80
2019-05-11T13:53:27.641Z,12.05
2019-05-11T13:55:58.535Z,19.95
2019-05-11T13:58:27.760Z,11.30
2019-05-11T14:00:58.569Z,10.72
2019-05-11T14:03:27.944Z,15.85
2019-05-11T14:05:58.343Z,15.68
2019-05-11T14:08:27.824Z,13.83
2019-05-11T14:10:58.048Z,11.60
2019-05-11T14:13:28.566Z,14.05
2019-05-11T14:15:58.745Z,16.40
2019-05-11T14:18:28.160Z,21.57
2019-05-11T14:20:58.658Z,13.53
2019-05-11T14:23:30.822Z,10.72
2019-05-11T14:25:57.815Z,13.18
2019-05-11T14:28:28.494Z,11.78
2019-05-11T14:30:57.849Z,19.35
2019-05-11T14:33:28.301Z,17.73
2019-05-11T14:35:57.818Z,14.18
2019-05-11T14:38:28.291Z,13.15
2019-05-11T14:40:58.618Z,16.10
2019-05-11T14:43:27.800Z,11.73
2019-05-11T14:45:57.844Z,12.85
2019-05-11T14:48:29.806Z,15.03
2019-05-11T14:50:59.104Z,12.90
2019-05-11T14:53:28.348Z,17.90
2019-05-11T14:55:58.485Z,13.43
2019-05-11T14:58:28.020Z,16.12
2019-05-11T15:00:58.282Z,19.92
2019-05-11T15:03:28.755Z,12.50
2019-05-11T15:05:58.337Z,17.05
2019-05-11T15:08:28.668Z,13.78
2019-05-11T15:10:57.760Z,11.60
2019-05-11T15:13:28.671Z,14.65
2019-05-11T15:15:58.632Z,18.05
2019-05-11T15:18:36.125Z,13.05
2019-05-11T15:20:58.346Z,13.00
2019-05-11T15:23:28.479Z,11.93
2019-05-11T15:25:58.697Z,13.03
2019-05-11T15:28:28.509Z,13.50
2019-05-11T15:30:58.777Z,14.38
2019-05-11T15:33:28.037Z,15.23
2019-05-11T15:35:58.295Z,11.80
2019-05-11T15:38:28.434Z,9.68
2019-05-11T15:40:58.034Z,8.75
2019-05-11T15:43:28.277Z,12.58
2019-05-11T15:45:58.396Z,11.05
2019-05-11T15:48:27.808Z,12.33
2019-05-11T15:50:57.887Z,11.57
2019-05-11T15:53:26.697Z,7.83
2019-05-11T15:55:59.594Z,8.03
2019-05-11T15:58:25.693Z,10.28
2019-05-11T16:00:55.782Z,6.58
2019-05-11T16:03:25.154Z,7.80
2019-05-11T16:05:53.795Z,7.03
2019-05-11T16:08:22.539Z,6.72
2019-05-11T16:10:51.142Z,6.70
2019-05-11T16:13:19.764Z,5.45
2019-05-11T16:15:48.495Z,9.13
2019-05-11T16:18:18.918Z,5.40
2019-05-11T16:20:50.169Z,6.58
2019-05-11T16:23:20.243Z,5.17
2019-05-11T16:25:49.034Z,8.18
2019-05-11T16:28:19.338Z,8.28
2019-05-11T16:30:48.411Z,7.10
2019-05-11T16:33:17.977Z,9.15
2019-05-11T16:35:48.986Z,7.42
2019-05-11T16:38:18.817Z,8.28
2019-05-11T16:40:48.569Z,9.15
2019-05-11T16:43:19.195Z,8.03
2019-05-11T16:45:50.711Z,5.28
2019-05-11T16:48:18.394Z,8.10
2019-05-11T16:50:47.259Z,9.15
2019-05-11T16:53:17.981Z,8.90
2019-05-11T16:55:48.397Z,6.60
2019-05-11T16:58:19.870Z,8.78
2019-05-11T17:00:49.075Z,8.18
2019-05-11T17:03:17.162Z,11.57
2019-05-11T17:05:48.254Z,9.13
2019-05-11T17:08:16.024Z,11.65
2019-05-11T17:10:48.034Z,8.00
2019-05-11T17:13:18.053Z,8.33
2019-05-11T17:15:47.084Z,8.90
2019-05-11T17:18:15.660Z,7.95
2019-05-11T17:20:44.293Z,5.35
2019-05-11T17:23:12.965Z,6.40
2019-05-11T17:25:41.846Z,6.92
2019-05-11T17:28:10.523Z,5.62
2019-05-11T17:30:39.127Z,5.90
2019-05-11T17:33:08.722Z,8.68
2019-05-11T17:35:37.465Z,7.60
2019-05-11T17:38:07.927Z,8.05
2019-05-11T17:40:37.939Z,11.93
2019-05-11T17:43:09.074Z,8.03
2019-05-11T17:45:37.469Z,6.83
2019-05-11T17:48:08.462Z,10.38
2019-05-11T17:50:38.317Z,6.08
2019-05-11T17:53:07.329Z,6.42
2019-05-11T17:55:38.294Z,7.60
2019-05-11T17:58:08.738Z,8.55
2019-05-11T18:00:39.202Z,8.93
2019-05-11T18:03:11.259Z,7.80
2019-05-11T18:05:39.254Z,6.72
2019-05-11T18:08:08.832Z,4.90
2019-05-11T18:10:38.619Z,4.87
2019-05-11T18:13:07.654Z,9.18
2019-05-11T18:15:38.050Z,7.12
2019-05-11T18:18:09.453Z,5.30
2019-05-11T18:20:39.034Z,8.00
2019-05-11T18:23:08.999Z,7.50
2019-05-11T18:25:39.175Z,5.40
2019-05-11T18:28:07.853Z,7.10
2019-05-11T18:30:38.619Z,8.23
2019-05-11T18:33:08.430Z,6.90
2019-05-11T18:35:37.687Z,8.93
2019-05-11T18:38:08.608Z,8.70
2019-05-11T18:40:38.244Z,6.28
2019-05-11T18:43:08.617Z,6.95
2019-05-11T18:45:38.190Z,7.42
2019-05-11T18:48:08.189Z,11.75
2019-05-11T18:50:38.549Z,7.37
2019-05-11T18:53:09.179Z,9.28
2019-05-11T18:55:39.296Z,11.25
2019-05-11T18:58:08.275Z,8.98
2019-05-11T19:00:38.247Z,8.43
2019-05-11T19:03:08.979Z,7.67
2019-05-11T19:05:39.579Z,8.93
2019-05-11T19:08:09.011Z,6.92
2019-05-11T19:10:38.847Z,6.70
2019-05-11T19:13:08.683Z,7.35
2019-05-11T19:15:38.846Z,4.58
2019-05-11T19:18:08.229Z,8.73
2019-05-11T19:20:45.751Z,6.17
2019-05-11T19:23:09.934Z,12.28
2019-05-11T19:25:40.842Z,8.68
2019-05-11T19:28:10.965Z,9.48
2019-05-11T19:30:41.765Z,7.92
2019-05-11T19:33:11.943Z,5.35
2019-05-11T19:35:41.987Z,8.38
2019-05-11T19:38:11.959Z,8.45
2019-05-11T19:40:43.594Z,9.38
2019-05-11T19:44:08.580Z,6.47
2019-05-11T19:46:39.954Z,8.30
2019-05-11T19:49:10.575Z,5.20
2019-05-11T19:51:42.558Z,5.08
2019-05-11T19:54:14.135Z,6.58
2019-05-11T19:56:46.033Z,6.70
2019-05-11T19:59:17.949Z,8.50
2019-05-11T20:01:49.738Z,12.70
2019-05-11T20:04:22.412Z,7.83
2019-05-11T20:06:53.018Z,6.65
2019-05-11T20:09:24.524Z,14.03
2019-05-11T20:11:55.216Z,6.28
2019-05-11T20:14:28.385Z,5.80
2019-05-11T20:17:00.911Z,9.55
2019-05-11T20:19:32.493Z,9.40
2019-05-11T20:22:04.485Z,7.17
2019-05-11T20:24:36.260Z,10.03
2019-05-11T20:27:08.057Z,9.05
2019-05-11T20:29:38.797Z,11.10
2019-05-11T20:32:10.611Z,9.13
2019-05-11T20:34:42.554Z,7.22
2019-05-11T20:37:13.757Z,8.58
2019-05-11T20:39:43.241Z,7.58
2019-05-11T20:42:13.140Z,8.00
2019-05-11T20:44:45.002Z,9.80
2019-05-11T20:47:14.424Z,11.97
2019-05-11T20:49:43.471Z,15.28
2019-05-11T20:52:12.384Z,8.83
2019-05-11T20:54:41.143Z,9.58
2019-05-11T20:57:09.740Z,8.68
2019-05-11T20:59:38.332Z,7.90
2019-05-11T21:02:09.323Z,9.28
2019-05-11T21:04:38.688Z,11.83
2019-05-11T21:07:08.470Z,9.50
2019-05-11T21:09:37.984Z,11.57
2019-05-11T21:12:08.152Z,9.83
2019-05-11T21:14:38.522Z,8.93
2019-05-11T21:17:09.064Z,8.18
2019-05-11T21:19:38.771Z,8.45
2019-05-11T21:22:08.883Z,11.68
2019-05-11T21:24:38.034Z,8.80
2019-05-11T21:27:06.962Z,7.78
2019-05-11T21:29:35.524Z,9.05
2019-05-11T21:32:05.248Z,10.95
2019-05-11T21:34:34.434Z,10.55
2019-05-11T21:37:03.355Z,10.30
2019-05-11T21:39:32.244Z,9.00
2019-05-11T21:42:01.200Z,9.05
2019-05-11T21:44:30.699Z,7.78
2019-05-11T21:46:59.316Z,6.37
2019-05-11T21:49:28.319Z,7.78
2019-05-11T21:52:04.614Z,9.58
2019-05-11T21:54:29.928Z,8.13
2019-05-11T21:56:57.891Z,9.95
2019-05-11T21:59:27.714Z,9.10
2019-05-11T22:01:56.545Z,8.00
2019-05-11T22:04:25.123Z,8.90
2019-05-11T22:06:53.785Z,11.80
2019-05-11T22:09:22.591Z,9.78
2019-05-11T22:11:51.388Z,7.65
2019-05-11T22:14:20.024Z,8.38
2019-05-11T22:16:48.640Z,7.60
2019-05-11T22:19:17.753Z,10.98
2019-05-11T22:21:49.415Z,9.30
2019-05-11T22:24:17.968Z,5.55
2019-05-11T22:26:46.753Z,6.67
2019-05-11T22:29:15.345Z,5.65
2019-05-11T22:31:43.909Z,7.60
2019-05-11T22:34:12.545Z,6.30
2019-05-11T22:36:41.113Z,10.32
2019-05-11T22:39:09.736Z,7.67
2019-05-11T22:41:39.626Z,7.47
2019-05-11T22:44:11.056Z,9.05
2019-05-11T22:46:38.783Z,7.90
2019-05-11T22:49:08.462Z,12.60
2019-05-11T22:51:37.207Z,10.82
2019-05-11T22:54:08.118Z,8.00
2019-05-11T22:56:38.042Z,12.30
2019-05-11T22:59:08.323Z,8.13
2019-05-11T23:01:37.848Z,6.12
2019-05-11T23:04:06.661Z,6.72
2019-05-11T23:06:35.223Z,7.62
2019-05-11T23:09:07.929Z,9.58
2019-05-11T23:11:37.941Z,7.30
2019-05-11T23:14:09.769Z,7.33
2019-05-11T23:16:36.921Z,7.92
2019-05-11T23:19:09.457Z,7.67
2019-05-11T23:21:35.858Z,11.55
2019-05-11T23:24:04.424Z,7.75
2019-05-11T23:26:33.225Z,9.63
2019-05-11T23:29:01.906Z,10.68
2019-05-11T23:31:30.517Z,10.10
2019-05-11T23:33:59.085Z,11.50
2019-05-11T23:36:28.260Z,11.50
2019-05-11T23:38:58.552Z,6.80
2019-05-11T23:41:28.814Z,6.42
2019-05-11T23:43:58.389Z,7.15
2019-05-11T23:46:28.508Z,8.20
2019-05-11T23:48:58.098Z,9.03
2019-05-11T23:51:28.302Z,7.35
2019-05-11T23:53:58.850Z,8.28
2019-05-11T23:56:28.159Z,8.55
2019-05-11T23:58:57.874Z,7.35
